Time;durP1;ratioP1;P1;durP2;ratioP2;P2;SDS_P1;SDS_P2;PMS_P1;PMS_P2;Temp;Humidity;BMP_temperature;BMP_pressure;BME280_temperature;BME280_humidity;BME280_pressure;Samples;Min_cycle;Max_cycle;Signal;HPM_P1;HPM_P2
2021/12/24 00:00:03;;;;;;;6.80;1.95;;;8.80;99.90;;;;;;5001596;28;20161;-56
2021/12/24 00:02:30;;;;;;;6.00;1.80;;;8.80;99.90;;;;;;5003632;28;20223;-55
2021/12/24 00:04:57;;;;;;;7.72;2.00;;;8.80;99.90;;;;;;5009216;28;20407;-56
2021/12/24 00:07:24;;;;;;;5.15;1.70;;;8.70;99.90;;;;;;5003354;28;20567;-56
2021/12/24 00:09:51;;;;;;;4.35;1.77;;;8.70;99.90;;;;;;5005359;28;20128;-55
2021/12/24 00:12:20;;;;;;;6.00;2.10;;;8.70;99.90;;;;;;5010522;28;20050;-54
2021/12/24 00:14:51;;;;;;;4.25;1.65;;;8.70;99.90;;;;;;5010282;28;20080;-54
2021/12/24 00:17:24;;;;;;;4.68;2.17;;;8.70;99.90;;;;;;5007989;28;20064;-54
2021/12/24 00:36:08;;;;;;;2.85;1.60;;;8.50;99.90;;;;;;5016532;28;20115;-56
2021/12/24 00:38:35;;;;;;;2.85;0.90;;;8.50;99.90;;;;;;5008907;28;20061;-56
2021/12/24 00:41:02;;;;;;;2.33;0.98;;;8.50;99.90;;;;;;5009950;28;20132;-57
2021/12/24 00:43:28;;;;;;;3.17;1.23;;;8.40;99.90;;;;;;5010205;28;20570;-55
2021/12/24 00:45:55;;;;;;;2.60;1.13;;;8.40;99.90;;;;;;5012944;28;20155;-56
2021/12/24 00:48:22;;;;;;;3.22;0.98;;;8.40;99.90;;;;;;5009233;28;20058;-56
2021/12/24 00:56:08;;;;;;;5.45;1.38;;;8.30;99.90;;;;;;5006567;28;20053;-55
2021/12/24 00:58:35;;;;;;;4.57;1.48;;;8.30;99.90;;;;;;5011458;28;20061;-57
2021/12/24 01:01:04;;;;;;;5.53;1.20;;;8.30;99.90;;;;;;5011354;28;20057;-57
2021/12/24 01:03:31;;;;;;;4.55;1.15;;;8.20;99.90;;;;;;5012017;28;20081;-55
2021/12/24 01:05:58;;;;;;;3.80;1.30;;;8.20;99.90;;;;;;5011913;28;20089;-56
2021/12/24 01:08:24;;;;;;;2.88;1.40;;;8.10;99.90;;;;;;5009741;28;20092;-56
2021/12/24 01:10:57;;;;;;;2.05;1.10;;;8.10;99.90;;;;;;5008393;28;20597;-56
2021/12/24 01:13:25;;;;;;;4.35;1.30;;;8.10;99.90;;;;;;5008930;28;20632;-55
2021/12/24 01:18:33;;;;;;;4.13;1.90;;;8.00;99.90;;;;;;5011531;28;20103;-55
2021/12/24 01:23:55;;;;;;;6.05;1.95;;;8.00;99.90;;;;;;5010307;28;20139;-57
2021/12/24 01:26:37;;;;;;;4.80;1.70;;;8.00;99.90;;;;;;5012277;28;20141;-54
2021/12/24 01:29:32;;;;;;;2.75;1.30;;;8.00;99.90;;;;;;5007865;28;20077;-56
2021/12/24 01:40:25;;;;;;;3.70;1.65;;;7.80;99.90;;;;;;5008178;28;20088;-55
2021/12/24 01:42:52;;;;;;;2.08;1.40;;;7.70;99.90;;;;;;5010056;28;20086;-56
2021/12/24 01:45:27;;;;;;;3.88;1.35;;;7.70;99.90;;;;;;5015787;28;20133;-55
2021/12/24 01:47:59;;;;;;;4.13;1.75;;;7.70;99.90;;;;;;5014662;28;20109;-55
2021/12/24 01:50:27;;;;;;;2.55;1.50;;;7.70;99.90;;;;;;5018693;28;20581;-57
2021/12/24 01:52:55;;;;;;;2.50;1.80;;;7.70;99.90;;;;;;5011709;28;20800;-55
2021/12/24 01:55:23;;;;;;;3.80;2.20;;;7.70;99.90;;;;;;5012718;28;20119;-55
2021/12/24 01:57:50;;;;;;;2.50;1.58;;;7.60;99.90;;;;;;5009596;28;20125;-54
2021/12/24 02:00:22;;;;;;;4.35;2.17;;;7.50;99.90;;;;;;5013051;28;20152;-55
2021/12/24 02:02:49;;;;;;;3.25;2.13;;;7.50;99.90;;;;;;5012545;28;20091;-55
2021/12/24 02:05:16;;;;;;;5.25;2.50;;;7.40;99.90;;;;;;5016336;28;20407;-54
2021/12/24 02:07:43;;;;;;;3.85;2.70;;;7.40;99.90;;;;;;5013030;28;20092;-55
2021/12/24 02:10:11;;;;;;;5.30;3.03;;;7.40;99.90;;;;;;5010511;28;20193;-55
2021/12/24 02:12:38;;;;;;;5.78;2.78;;;7.30;99.90;;;;;;5008910;28;20092;-56
2021/12/24 02:15:09;;;;;;;3.17;2.60;;;7.30;99.90;;;;;;5020744;28;20140;-57
2021/12/24 02:28:35;;;;;;;4.35;2.47;;;7.20;99.90;;;;;;5010532;28;20156;-56
2021/12/24 02:31:03;;;;;;;3.72;2.70;;;7.20;99.90;;;;;;5013211;28;20096;-56
2021/12/24 02:33:30;;;;;;;5.85;3.17;;;7.20;99.90;;;;;;5010397;28;20497;-56
2021/12/24 02:35:56;;;;;;;6.05;3.40;;;7.10;99.90;;;;;;5012178;28;20076;-55
2021/12/24 02:38:24;;;;;;;5.35;3.60;;;7.20;99.90;;;;;;5010325;28;20493;-55
2021/12/24 02:40:50;;;;;;;6.75;4.25;;;7.20;99.90;;;;;;5014649;28;20147;-56
2021/12/24 02:43:20;;;;;;;5.38;3.70;;;7.30;99.90;;;;;;5013848;28;20083;-56
2021/12/24 02:45:49;;;;;;;4.97;3.85;;;7.40;99.90;;;;;;5016706;28;20537;-56
2021/12/24 02:53:57;;;;;;;6.53;4.85;;;7.60;99.90;;;;;;5013187;28;20045;-56
2021/12/24 02:56:27;;;;;;;5.55;4.45;;;7.70;99.90;;;;;;5012848;28;20084;-56
2021/12/24 02:58:55;;;;;;;6.53;4.03;;;7.80;99.90;;;;;;5013141;28;20218;-56
2021/12/24 03:01:24;;;;;;;7.07;4.40;;;7.90;99.90;;;;;;5014075;28;20092;-56
2021/12/24 03:03:51;;;;;;;6.55;3.95;;;8.00;99.90;;;;;;5016557;28;20120;-56
2021/12/24 03:06:19;;;;;;;7.63;3.22;;;8.10;99.90;;;;;;5009710;28;20079;-57
2021/12/24 03:08:46;;;;;;;4.97;3.22;;;8.10;99.90;;;;;;5010716;28;20145;-56
2021/12/24 03:11:13;;;;;;;7.57;3.90;;;8.20;99.90;;;;;;5014592;28;20049;-57
2021/12/24 03:13:40;;;;;;;4.43;2.83;;;8.20;99.90;;;;;;5013696;28;20141;-55
2021/12/24 03:16:07;;;;;;;3.97;2.95;;;8.30;99.90;;;;;;5011674;28;20132;-55
2021/12/24 03:18:37;;;;;;;5.55;3.38;;;8.30;99.90;;;;;;5014606;28;20059;-55
2021/12/24 03:26:35;;;;;;;4.22;2.63;;;8.50;99.90;;;;;;5015658;28;20133;-57
2021/12/24 03:29:07;;;;;;;4.55;2.25;;;8.50;99.90;;;;;;5011530;28;20058;-57
2021/12/24 03:31:34;;;;;;;4.35;2.97;;;8.40;99.90;;;;;;5012421;28;20100;-58
2021/12/24 03:34:01;;;;;;;4.45;2.50;;;8.40;99.90;;;;;;5016114;28;20128;-58
2021/12/24 03:36:27;;;;;;;3.78;2.15;;;8.30;99.90;;;;;;5016042;28;20049;-56
2021/12/24 03:38:54;;;;;;;5.90;2.78;;;8.20;99.90;;;;;;5011688;28;20173;-57
2021/12/24 03:41:21;;;;;;;3.35;2.22;;;8.10;99.90;;;;;;5012260;28;20073;-56
2021/12/24 03:43:48;;;;;;;3.85;2.38;;;8.10;99.90;;;;;;5013937;28;20151;-56
2021/12/24 03:46:18;;;;;;;4.05;2.30;;;8.10;99.90;;;;;;5013931;28;20101;-55
2021/12/24 03:48:56;;;;;;;4.65;2.80;;;8.00;99.90;;;;;;5014244;28;20116;-57
2021/12/24 03:51:48;;;;;;;4.80;2.53;;;8.00;99.90;;;;;;5016458;28;20853;-55
2021/12/24 03:57:00;;;;;;;3.78;2.30;;;8.00;99.90;;;;;;5013870;28;20112;-56
2021/12/24 03:59:26;;;;;;;3.38;2.05;;;7.90;99.90;;;;;;5016314;28;20103;-57
2021/12/24 04:01:53;;;;;;;4.80;2.38;;;7.90;99.90;;;;;;5016115;28;20137;-55
2021/12/24 04:04:20;;;;;;;3.65;2.20;;;7.90;99.90;;;;;;5018082;28;20097;-56
2021/12/24 04:06:47;;;;;;;4.55;2.08;;;7.90;99.90;;;;;;5022734;28;20133;-57
2021/12/24 04:09:14;;;;;;;4.07;2.30;;;7.80;99.90;;;;;;5015886;28;20049;-57
2021/12/24 04:11:41;;;;;;;4.97;2.08;;;7.80;99.90;;;;;;5015951;28;20152;-56
2021/12/24 04:14:08;;;;;;;3.65;1.77;;;7.80;99.90;;;;;;5018503;28;20156;-55
2021/12/24 04:16:35;;;;;;;2.97;2.05;;;7.90;99.90;;;;;;5016332;28;20057;-56
2021/12/24 04:24:52;;;;;;;6.80;2.20;;;7.80;99.90;;;;;;5020797;28;20091;-57
2021/12/24 04:27:21;;;;;;;5.45;1.90;;;7.80;99.90;;;;;;5015094;28;20054;-57
2021/12/24 04:29:48;;;;;;;6.15;1.90;;;7.70;99.90;;;;;;5017078;28;20129;-56
2021/12/24 04:32:21;;;;;;;4.07;2.25;;;7.80;99.90;;;;;;5017667;28;20088;-57
2021/12/24 04:34:51;;;;;;;3.72;1.67;;;7.90;99.90;;;;;;5015687;28;20140;-57
2021/12/24 05:04:33;;;;;;;5.10;2.00;;;8.70;99.90;;;;;;5017963;28;20096;-56
2021/12/24 05:07:22;;;;;;;4.65;2.20;;;8.70;99.90;;;;;;5015336;28;20089;-56
2021/12/24 05:09:49;;;;;;;4.47;2.47;;;8.70;99.90;;;;;;5013579;28;20533;-54
2021/12/24 05:12:16;;;;;;;5.32;2.10;;;8.70;99.90;;;;;;5015559;28;20418;-56
2021/12/24 05:14:43;;;;;;;4.07;1.83;;;8.80;99.90;;;;;;5016160;28;20149;-56
2021/12/24 05:17:47;;;;;;;3.80;2.28;;;8.80;99.90;;;;;;5014074;28;20132;-56
2021/12/24 05:22:42;;;;;;;4.63;2.38;;;8.80;99.90;;;;;;5017715;28;20160;-57
2021/12/24 05:25:08;;;;;;;5.18;2.22;;;8.70;99.90;;;;;;5014109;28;20089;-57
2021/12/24 05:27:36;;;;;;;5.03;2.30;;;8.60;99.90;;;;;;5014960;28;20089;-57
2021/12/24 05:30:03;;;;;;;3.97;2.33;;;8.50;99.90;;;;;;5013614;28;20111;-58
2021/12/24 05:32:30;;;;;;;3.85;2.40;;;8.40;99.90;;;;;;5013044;28;20121;-55
2021/12/24 05:34:57;;;;;;;6.82;2.38;;;8.30;99.90;;;;;;5014293;28;20144;-57
2021/12/24 05:37:24;;;;;;;5.13;4.00;;;8.30;99.90;;;;;;5016122;28;20136;-55
2021/12/24 05:39:50;;;;;;;4.88;2.40;;;8.20;99.90;;;;;;5014496;28;20478;-57
2021/12/24 05:42:17;;;;;;;6.78;2.63;;;8.20;99.90;;;;;;5013535;28;20117;-57
2021/12/24 05:44:44;;;;;;;4.57;2.25;;;8.30;99.90;;;;;;5013984;28;20100;-58
2021/12/24 05:47:11;;;;;;;4.28;2.15;;;8.30;99.90;;;;;;5012770;28;20503;-57
2021/12/24 05:49:37;;;;;;;4.78;2.35;;;8.30;99.90;;;;;;5013163;28;20092;-56
2021/12/24 05:52:04;;;;;;;4.10;2.40;;;8.40;99.90;;;;;;5013917;28;20093;-57
2021/12/24 05:54:31;;;;;;;3.25;2.47;;;8.40;99.90;;;;;;5015651;28;20088;-54
2021/12/24 05:56:58;;;;;;;5.03;2.50;;;8.40;99.90;;;;;;5015891;28;20596;-54
2021/12/24 05:59:24;;;;;;;2.83;2.20;;;8.40;99.90;;;;;;5017656;28;20087;-57
2021/12/24 06:01:51;;;;;;;4.38;2.78;;;8.50;99.90;;;;;;5010334;28;20138;-55
2021/12/24 06:04:18;;;;;;;3.60;2.78;;;8.50;99.90;;;;;;4995918;28;20050;-55
2021/12/24 06:06:45;;;;;;;3.70;2.00;;;8.60;99.90;;;;;;5007576;28;20124;-57
2021/12/24 06:09:12;;;;;;;3.78;3.05;;;8.60;99.90;;;;;;5012534;28;20673;-56
2021/12/24 06:11:38;;;;;;;4.10;2.33;;;8.70;99.90;;;;;;5011409;28;20088;-54
2021/12/24 06:14:11;;;;;;;3.33;2.47;;;8.70;99.90;;;;;;5015432;28;20117;-57
2021/12/24 06:16:49;;;;;;;3.15;2.22;;;8.70;99.90;;;;;;5009522;28;20595;-56
2021/12/24 06:19:16;;;;;;;3.67;2.45;;;8.80;99.90;;;;;;5009599;28;20061;-56
2021/12/24 06:21:45;;;;;;;5.78;2.85;;;8.80;99.90;;;;;;5008979;28;20081;-58
2021/12/24 06:24:13;;;;;;;4.63;2.65;;;8.80;99.90;;;;;;5011343;28;20145;-56
2021/12/24 06:26:39;;;;;;;4.90;2.75;;;8.80;99.90;;;;;;5010331;28;20057;-56
2021/12/24 06:29:06;;;;;;;5.35;2.58;;;8.80;99.90;;;;;;5010301;28;20133;-57
2021/12/24 06:31:33;;;;;;;3.83;3.00;;;8.80;99.90;;;;;;5013459;28;20049;-58
2021/12/24 06:34:00;;;;;;;3.78;2.75;;;8.80;99.90;;;;;;5019077;28;20132;-57
2021/12/24 06:36:27;;;;;;;4.68;3.00;;;8.80;99.90;;;;;;5020374;28;20735;-57
2021/12/24 06:38:54;;;;;;;4.47;3.65;;;8.80;99.90;;;;;;5019734;28;20081;-54
2021/12/24 06:41:23;;;;;;;4.03;3.22;;;8.80;99.90;;;;;;5019664;28;20128;-57
2021/12/24 06:43:50;;;;;;;4.13;3.08;;;8.80;99.90;;;;;;5013747;28;20077;-58
2021/12/24 06:46:17;;;;;;;5.47;3.15;;;8.80;99.90;;;;;;5015683;28;20132;-56
2021/12/24 06:48:45;;;;;;;4.03;3.00;;;8.80;99.90;;;;;;5015054;28;20131;-58
2021/12/24 06:51:12;;;;;;;4.15;2.65;;;8.80;99.90;;;;;;5014275;28;20706;-57
2021/12/24 06:53:38;;;;;;;5.47;2.83;;;8.70;99.90;;;;;;5012572;28;20136;-56
2021/12/24 06:56:05;;;;;;;5.20;3.30;;;8.70;99.90;;;;;;5013880;28;20100;-58
2021/12/24 06:58:32;;;;;;;4.72;3.10;;;8.60;99.90;;;;;;5010913;28;20137;-55
2021/12/24 07:00:59;;;;;;;5.78;3.30;;;8.50;99.90;;;;;;5012687;28;20084;-57
2021/12/24 07:03:26;;;;;;;4.00;2.85;;;8.30;99.90;;;;;;5013563;28;20140;-54
2021/12/24 07:05:52;;;;;;;5.07;3.47;;;8.20;99.90;;;;;;5013678;28;20049;-57
2021/12/24 07:08:19;;;;;;;5.43;3.70;;;8.10;99.90;;;;;;5012745;28;20042;-55
2021/12/24 07:10:46;;;;;;;7.40;4.30;;;8.10;99.90;;;;;;5014675;28;20137;-56
2021/12/24 07:13:12;;;;;;;6.05;3.88;;;8.10;99.90;;;;;;5011208;28;20135;-57
2021/12/24 07:15:39;;;;;;;5.75;4.13;;;8.10;99.90;;;;;;5014130;28;20041;-58
2021/12/24 07:18:07;;;;;;;7.65;4.53;;;8.10;99.90;;;;;;5013606;28;20108;-53
2021/12/24 07:20:33;;;;;;;5.32;3.47;;;8.20;99.90;;;;;;5013388;28;20140;-56
2021/12/24 07:23:00;;;;;;;6.38;4.05;;;8.30;99.90;;;;;;5011515;28;20121;-56
2021/12/24 07:25:27;;;;;;;5.22;3.75;;;8.30;99.90;;;;;;5013923;28;20149;-56
2021/12/24 07:27:54;;;;;;;5.03;3.58;;;8.40;99.90;;;;;;5012167;28;20136;-57
2021/12/24 07:30:21;;;;;;;8.95;4.05;;;8.50;99.90;;;;;;5012211;28;20180;-57
2021/12/24 07:32:48;;;;;;;5.43;3.38;;;8.50;99.90;;;;;;5011720;28;20045;-55
2021/12/24 07:35:16;;;;;;;5.82;3.70;;;8.60;99.90;;;;;;5013801;28;20160;-58
2021/12/24 07:37:43;;;;;;;6.82;3.97;;;8.60;99.90;;;;;;5011326;28;20123;-55
2021/12/24 07:40:13;;;;;;;5.38;3.20;;;8.70;99.90;;;;;;5011846;28;20144;-58
2021/12/24 07:42:40;;;;;;;5.13;3.38;;;8.70;99.90;;;;;;5008271;28;20128;-57
2021/12/24 07:45:08;;;;;;;5.32;3.60;;;8.70;99.90;;;;;;5012686;28;20084;-56
2021/12/24 07:47:40;;;;;;;5.95;3.60;;;8.60;99.90;;;;;;5004623;28;20366;-57
2021/12/24 07:52:44;;;;;;;4.55;3.10;;;8.60;99.90;;;;;;5011104;28;20162;-58
2021/12/24 07:55:11;;;;;;;4.90;3.65;;;8.60;99.90;;;;;;5005621;28;20599;-57
2021/12/24 07:57:46;;;;;;;4.20;3.30;;;8.60;99.90;;;;;;5004867;28;20913;-57
2021/12/24 08:00:13;;;;;;;5.53;3.95;;;8.50;99.90;;;;;;5007044;28;20136;-57
2021/12/24 08:02:41;;;;;;;6.57;4.80;;;8.60;99.90;;;;;;5008219;28;20131;-58
2021/12/24 08:05:08;;;;;;;4.90;4.30;;;8.60;99.90;;;;;;5011529;28;20053;-57
2021/12/24 08:07:35;;;;;;;4.88;4.07;;;8.60;99.90;;;;;;5009187;28;20161;-61
2021/12/24 08:10:02;;;;;;;5.63;3.92;;;8.60;99.90;;;;;;5008491;28;20159;-62
2021/12/24 08:12:28;;;;;;;6.93;4.20;;;8.60;99.90;;;;;;5005672;28;20573;-62
2021/12/24 08:14:55;;;;;;;5.15;4.45;;;8.60;99.90;;;;;;5009049;28;20073;-54
2021/12/24 08:17:22;;;;;;;5.35;3.88;;;8.70;99.90;;;;;;5007630;28;20161;-56
2021/12/24 08:19:49;;;;;;;5.90;4.07;;;8.70;99.90;;;;;;5011382;28;20465;-56
2021/12/24 08:22:16;;;;;;;5.90;3.60;;;8.80;99.90;;;;;;5010618;28;20139;-57
2021/12/24 08:24:42;;;;;;;5.35;3.50;;;8.80;99.90;;;;;;5009561;28;20255;-56
2021/12/24 08:27:09;;;;;;;6.05;3.75;;;8.80;99.90;;;;;;5005829;28;20129;-55
2021/12/24 08:29:36;;;;;;;4.15;3.40;;;8.80;99.90;;;;;;5011275;28;20900;-53
2021/12/24 08:32:04;;;;;;;4.88;3.17;;;8.90;99.90;;;;;;5010672;28;20127;-54
2021/12/24 08:34:31;;;;;;;5.80;3.53;;;8.90;99.90;;;;;;5011330;28;20677;-53
2021/12/24 08:36:58;;;;;;;4.60;3.55;;;8.90;99.90;;;;;;5010726;28;20095;-54
2021/12/24 08:39:24;;;;;;;6.05;3.90;;;8.90;99.90;;;;;;5013490;28;20080;-54
2021/12/24 08:41:54;;;;;;;4.82;3.90;;;9.00;99.90;;;;;;5012908;28;20049;-54
2021/12/24 08:44:23;;;;;;;6.68;3.38;;;9.00;99.90;;;;;;5012384;28;20069;-54
2021/12/24 08:46:49;;;;;;;6.00;4.30;;;9.00;99.90;;;;;;5013346;28;20132;-55
2021/12/24 08:49:16;;;;;;;6.85;3.95;;;9.00;99.90;;;;;;5017190;28;20100;-54
2021/12/24 08:51:43;;;;;;;5.78;4.00;;;9.10;99.90;;;;;;5017584;28;20128;-54
2021/12/24 08:54:10;;;;;;;4.78;4.05;;;9.10;99.90;;;;;;5014720;28;20144;-54
2021/12/24 08:56:37;;;;;;;4.35;3.67;;;9.10;99.90;;;;;;5015133;28;20085;-54
2021/12/24 08:59:05;;;;;;;5.95;3.97;;;9.10;99.90;;;;;;5016151;28;20464;-53
2021/12/24 09:01:32;;;;;;;5.97;4.38;;;9.10;99.90;;;;;;5015297;28;20563;-55
2021/12/24 09:04:00;;;;;;;6.22;3.75;;;9.10;99.90;;;;;;5012667;28;20132;-58
2021/12/24 09:06:27;;;;;;;5.03;3.60;;;9.20;99.90;;;;;;5009797;28;20054;-57
2021/12/24 09:08:54;;;;;;;5.40;4.00;;;9.20;99.90;;;;;;5010288;28;20164;-54
2021/12/24 09:11:21;;;;;;;6.75;3.83;;;9.30;99.90;;;;;;5006146;28;20081;-52
2021/12/24 09:13:48;;;;;;;4.57;3.25;;;9.30;99.90;;;;;;5009163;28;20140;-56
2021/12/24 09:16:14;;;;;;;5.00;4.00;;;9.40;99.90;;;;;;5004178;28;20124;-56
2021/12/24 09:18:43;;;;;;;6.15;3.92;;;9.40;99.90;;;;;;5022164;28;20057;-56
2021/12/24 09:21:15;;;;;;;6.13;3.58;;;9.50;99.90;;;;;;5008347;28;20144;-57
2021/12/24 09:23:46;;;;;;;5.95;4.05;;;9.50;99.90;;;;;;5008882;28;20418;-58
2021/12/24 09:26:23;;;;;;;4.75;3.17;;;9.60;99.90;;;;;;5008617;28;20672;-57
2021/12/24 09:28:50;;;;;;;5.13;3.35;;;9.60;99.90;;;;;;5006330;28;20054;-56
2021/12/24 09:31:17;;;;;;;4.75;3.45;;;9.60;99.90;;;;;;5012973;28;20057;-56
2021/12/24 09:33:44;;;;;;;4.15;3.40;;;9.60;99.90;;;;;;5012239;28;20045;-58
2021/12/24 09:36:10;;;;;;;4.93;3.67;;;9.60;99.90;;;;;;5006964;28;20148;-57
2021/12/24 09:38:37;;;;;;;5.40;3.78;;;9.60;99.90;;;;;;5007074;28;20045;-57
2021/12/24 09:41:04;;;;;;;6.88;3.80;;;9.60;99.90;;;;;;5009997;28;20049;-57
2021/12/24 09:43:35;;;;;;;5.03;3.13;;;9.70;99.90;;;;;;5010209;28;20050;-57
2021/12/24 09:46:02;;;;;;;6.40;3.58;;;9.70;99.90;;;;;;5007149;28;20053;-57
2021/12/24 09:48:28;;;;;;;4.63;3.20;;;9.80;99.90;;;;;;5011194;28;20056;-57
2021/12/24 09:50:55;;;;;;;4.95;3.50;;;9.90;99.90;;;;;;5007531;28;20140;-58
2021/12/24 09:53:22;;;;;;;4.43;4.03;;;10.00;99.90;;;;;;5012705;28;20081;-58
2021/12/24 09:55:49;;;;;;;4.78;3.47;;;10.10;99.90;;;;;;5004462;28;20705;-57
2021/12/24 09:58:16;;;;;;;5.45;3.65;;;10.10;99.90;;;;;;5010207;28;20164;-56
2021/12/24 10:00:42;;;;;;;7.38;4.32;;;10.20;99.90;;;;;;5009161;28;20107;-57
2021/12/24 10:03:09;;;;;;;6.70;3.53;;;10.20;99.90;;;;;;4990466;28;20121;-57
2021/12/24 10:05:42;;;;;;;5.13;3.35;;;10.30;99.90;;;;;;5008496;28;20091;-56
2021/12/24 10:08:16;;;;;;;6.80;3.90;;;10.30;99.90;;;;;;5006673;28;20146;-57
2021/12/24 10:10:44;;;;;;;5.82;3.35;;;10.20;99.90;;;;;;5006047;28;20046;-57
2021/12/24 10:13:37;;;;;;;6.97;4.20;;;10.20;99.90;;;;;;5012218;28;20132;-57
2021/12/24 10:16:06;;;;;;;6.22;3.45;;;10.20;99.90;;;;;;5007356;28;20057;-58
2021/12/24 10:18:38;;;;;;;5.80;3.92;;;10.30;99.90;;;;;;5005873;28;20100;-57
2021/12/24 10:21:15;;;;;;;4.55;3.42;;;10.30;99.90;;;;;;5006704;28;20097;-58
2021/12/24 10:23:57;;;;;;;3.70;2.88;;;10.40;99.90;;;;;;5008010;28;20146;-58
2021/12/24 10:26:33;;;;;;;4.43;3.33;;;10.40;99.90;;;;;;5005057;28;20129;-54
2021/12/24 10:29:04;;;;;;;5.78;4.00;;;10.50;99.90;;;;;;5003121;28;20739;-57
2021/12/24 10:31:40;;;;;;;5.45;3.30;;;10.60;99.90;;;;;;5006706;28;20136;-57
2021/12/24 10:34:20;;;;;;;6.63;3.92;;;10.60;99.90;;;;;;5007086;28;20077;-56
2021/12/24 10:36:51;;;;;;;5.05;3.72;;;10.70;99.90;;;;;;5004036;28;20148;-57
2021/12/24 10:39:19;;;;;;;6.18;3.40;;;10.70;99.90;;;;;;5005197;28;20103;-58
2021/12/24 10:41:49;;;;;;;6.47;4.15;;;10.80;99.90;;;;;;5008844;28;20894;-57
2021/12/24 10:44:22;;;;;;;6.75;3.78;;;10.80;99.90;;;;;;5011789;28;20221;-57
2021/12/24 10:47:15;;;;;;;4.30;3.28;;;10.80;99.90;;;;;;5005039;28;20552;-58
2021/12/24 10:49:56;;;;;;;8.15;3.30;;;10.80;99.90;;;;;;5008655;28;20623;-57
2021/12/24 10:55:00;;;;;;;4.63;3.70;;;10.80;99.90;;;;;;5025170;28;21138;-57
2021/12/24 10:57:34;;;;;;;6.93;4.22;;;10.80;99.90;;;;;;5005604;28;20104;-57
2021/12/24 11:00:19;;;;;;;5.70;3.78;;;10.80;99.90;;;;;;5007341;28;20054;-57
2021/12/24 11:02:58;;;;;;;5.47;3.92;;;10.70;99.90;;;;;;5015055;28;21407;-58
2021/12/24 11:05:48;;;;;;;7.90;4.70;;;10.70;99.90;;;;;;5008930;28;20141;-57
2021/12/24 11:08:17;;;;;;;6.53;4.28;;;10.80;99.90;;;;;;5005288;28;20131;-57
2021/12/24 11:10:46;;;;;;;5.55;4.63;;;10.90;99.90;;;;;;5008351;28;20144;-57
2021/12/24 11:13:15;;;;;;;6.32;4.80;;;10.90;99.90;;;;;;5008222;28;20064;-57
2021/12/24 11:15:49;;;;;;;6.75;4.43;;;11.00;99.90;;;;;;5006960;28;20880;-58
2021/12/24 11:18:23;;;;;;;7.22;4.90;;;11.10;99.90;;;;;;5006302;28;20054;-57
2021/12/24 11:20:57;;;;;;;7.78;4.80;;;11.20;99.90;;;;;;5010803;28;20531;-57
2021/12/24 11:23:26;;;;;;;8.05;4.78;;;11.30;99.90;;;;;;5010973;28;20128;-56
2021/12/24 11:25:55;;;;;;;7.68;4.70;;;11.40;99.90;;;;;;5007465;28;20053;-58
2021/12/24 11:28:25;;;;;;;6.55;4.07;;;11.40;99.90;;;;;;5003604;28;20050;-58
2021/12/24 11:30:54;;;;;;;6.93;4.18;;;11.50;99.90;;;;;;5007690;28;20091;-57
2021/12/24 11:33:23;;;;;;;7.38;4.25;;;11.50;99.90;;;;;;5011920;28;20122;-58
2021/12/24 11:35:52;;;;;;;5.90;4.05;;;11.60;99.90;;;;;;5004179;28;20147;-57
2021/12/24 11:38:24;;;;;;;5.72;4.05;;;11.60;99.90;;;;;;5007165;28;20073;-56
2021/12/24 11:40:53;;;;;;;5.95;4.70;;;11.70;99.90;;;;;;5006925;28;20504;-56
2021/12/24 11:43:21;;;;;;;7.32;4.22;;;11.80;99.90;;;;;;5008998;28;20061;-57
2021/12/24 11:45:49;;;;;;;6.60;4.10;;;11.80;99.90;;;;;;5005530;28;20046;-56
2021/12/24 11:48:15;;;;;;;6.13;3.53;;;11.90;99.90;;;;;;5023951;28;20053;-56
2021/12/24 11:50:43;;;;;;;6.47;3.35;;;11.90;99.90;;;;;;5009015;28;20068;-57
2021/12/24 11:53:11;;;;;;;4.72;2.70;;;11.90;99.90;;;;;;5009159;28;20115;-57
2021/12/24 11:55:40;;;;;;;5.72;2.80;;;11.90;99.90;;;;;;5009469;28;20045;-57
2021/12/24 11:58:21;;;;;;;4.75;2.65;;;12.00;99.90;;;;;;5004003;28;20485;-56
2021/12/24 12:00:50;;;;;;;5.05;2.53;;;12.00;99.90;;;;;;5007392;28;20049;-58
2021/12/24 12:03:33;;;;;;;4.65;2.67;;;12.00;99.90;;;;;;5012039;28;20042;-55
2021/12/24 12:06:01;;;;;;;4.05;2.30;;;11.90;99.90;;;;;;5008626;28;20144;-56
2021/12/24 12:08:39;;;;;;;3.15;2.60;;;11.90;99.90;;;;;;5003163;28;20144;-57
2021/12/24 12:11:32;;;;;;;5.57;2.72;;;11.90;99.90;;;;;;5014440;28;20515;-57
2021/12/24 12:14:13;;;;;;;3.83;2.33;;;11.80;99.90;;;;;;5006506;28;20069;-57
2021/12/24 12:16:49;;;;;;;5.13;2.47;;;11.80;99.90;;;;;;5009207;28;20053;-56
2021/12/24 12:22:13;;;;;;;;;;;11.70;99.90;;;;;;5012090;28;20516;-57
2021/12/24 12:24:57;;;;;;;2.40;1.48;;;11.70;99.90;;;;;;5013482;28;20452;-58
2021/12/24 12:27:36;;;;;;;4.65;2.38;;;11.70;99.90;;;;;;5008967;28;20500;-58
2021/12/24 12:30:23;;;;;;;3.53;2.13;;;11.60;99.90;;;;;;5008131;28;20054;-58
2021/12/24 12:32:51;;;;;;;4.20;2.00;;;11.60;99.90;;;;;;5016130;28;20525;-56
2021/12/24 12:35:18;;;;;;;3.58;2.30;;;11.60;99.90;;;;;;5012836;28;20046;-55
2021/12/24 12:37:49;;;;;;;3.85;2.00;;;11.60;99.90;;;;;;5014415;28;20140;-57
2021/12/24 12:40:16;;;;;;;3.58;2.10;;;11.60;99.90;;;;;;5009027;28;20092;-57
2021/12/24 12:42:51;;;;;;;5.90;2.25;;;11.60;99.90;;;;;;5008949;28;20136;-56
2021/12/24 12:45:36;;;;;;;3.40;2.22;;;11.70;99.90;;;;;;5008046;28;20115;-55
2021/12/24 12:48:04;;;;;;;4.28;2.25;;;11.80;99.90;;;;;;5005871;28;20049;-57
2021/12/24 12:50:31;;;;;;;3.65;2.10;;;11.80;99.90;;;;;;5011417;28;20050;-61
2021/12/24 12:53:26;;;;;;;5.20;2.20;;;11.90;99.90;;;;;;5011258;28;20049;-57
2021/12/24 12:56:18;;;;;;;4.05;2.13;;;12.00;99.90;;;;;;5007159;28;20137;-56
2021/12/24 12:59:06;;;;;;;3.13;2.20;;;12.10;99.90;;;;;;5010368;28;20099;-56
2021/12/24 13:01:50;;;;;;;3.97;1.75;;;12.10;99.90;;;;;;5013832;28;20053;-57
2021/12/24 13:04:17;;;;;;;;;;;12.10;99.90;;;;;;5006977;28;20060;-55
2021/12/24 13:06:48;;;;;;;3.75;2.08;;;12.10;99.90;;;;;;5007959;28;19960;-57
2021/12/24 13:09:16;;;;;;;5.07;2.33;;;12.00;99.90;;;;;;5004922;28;20489;-57
2021/12/24 13:11:45;;;;;;;6.07;3.22;;;12.00;99.90;;;;;;5004677;28;20679;-52
2021/12/24 13:14:13;;;;;;;6.95;3.20;;;12.00;99.90;;;;;;5012089;28;20126;-57
2021/12/24 13:17:26;;;;;;;8.68;4.05;;;12.00;99.90;;;;;;5013038;28;20420;-52
2021/12/24 13:20:55;;;;;;;8.40;3.78;;;12.00;99.90;;;;;;5008991;28;20058;-57
2021/12/24 13:22:31;;;;;;;9.15;4.65;;;12.10;99.90;;;;;;5016027;28;20123;-57
2021/12/24 13:25:09;;;;;;;8.32;4.05;;;12.10;99.90;;;;;;5007524;28;20156;-57
2021/12/24 13:27:54;;;;;;;8.40;3.90;;;12.00;99.90;;;;;;5004628;28;20089;-57
2021/12/24 13:30:28;;;;;;;7.10;3.67;;;12.00;99.90;;;;;;5005982;28;20087;-57
2021/12/24 13:32:55;;;;;;;7.70;3.60;;;11.90;99.90;;;;;;5003815;28;20054;-57
2021/12/24 13:35:29;;;;;;;8.15;3.85;;;11.90;99.90;;;;;;5010311;28;20133;-57
2021/12/24 13:37:56;;;;;;;7.32;3.33;;;11.80;99.90;;;;;;5006323;28;20170;-57
2021/12/24 13:40:27;;;;;;;6.38;2.83;;;11.80;99.90;;;;;;5009393;28;20177;-57
2021/12/24 13:42:55;;;;;;;5.18;3.03;;;11.80;99.90;;;;;;5006563;28;20176;-58
2021/12/24 13:45:23;;;;;;;5.63;2.53;;;11.80;99.90;;;;;;5009920;28;20085;-58
2021/12/24 13:55:58;;;;;;;2.67;1.23;;;11.70;99.90;;;;;;5006311;28;20058;-57
2021/12/24 13:58:24;;;;;;;3.88;1.70;;;11.80;99.90;;;;;;5019062;28;20085;-53
2021/12/24 14:00:57;;;;;;;3.20;1.83;;;11.80;99.90;;;;;;5007508;28;20143;-57
2021/12/24 14:03:26;;;;;;;2.92;1.60;;;11.80;99.90;;;;;;5016098;28;20053;-57
2021/12/24 14:05:56;;;;;;;2.55;1.88;;;11.80;99.90;;;;;;5006171;28;20132;-57
2021/12/24 14:08:24;;;;;;;3.30;1.73;;;11.80;99.90;;;;;;5003269;28;20093;-57
2021/12/24 14:11:04;;;;;;;3.13;1.73;;;11.70;99.90;;;;;;5009413;28;20410;-57
2021/12/24 14:13:35;;;;;;;3.67;1.75;;;11.70;99.90;;;;;;5004899;28;20133;-58
2021/12/24 14:18:51;;;;;;;3.53;2.08;;;11.60;99.90;;;;;;5011549;28;20512;-58
2021/12/24 14:24:11;;;;;;;4.45;1.63;;;11.50;99.90;;;;;;5010995;28;20053;-58
2021/12/24 14:26:45;;;;;;;3.83;1.73;;;11.50;99.90;;;;;;5009398;28;20161;-56
2021/12/24 14:29:12;;;;;;;2.58;1.58;;;11.40;99.90;;;;;;5006704;28;20049;-57
2021/12/24 14:31:55;;;;;;;3.25;1.75;;;11.30;99.90;;;;;;5009640;28;20143;-56
2021/12/24 14:34:48;;;;;;;4.45;1.73;;;11.30;99.90;;;;;;5011386;28;20111;-58
2021/12/24 14:37:33;;;;;;;3.38;1.52;;;11.20;99.90;;;;;;5008775;28;20061;-57
2021/12/24 14:40:09;;;;;;;3.45;2.05;;;11.20;99.90;;;;;;5011429;28;20096;-58
2021/12/24 14:42:37;;;;;;;4.18;1.88;;;11.20;99.90;;;;;;5009823;28;20111;-58
2021/12/24 14:45:21;;;;;;;4.15;1.70;;;11.20;99.90;;;;;;5014788;28;20416;-57
2021/12/24 14:48:03;;;;;;;2.42;1.58;;;11.20;99.90;;;;;;5004285;28;20053;-57
2021/12/24 14:50:31;;;;;;;3.45;1.70;;;11.10;99.90;;;;;;5009611;28;20089;-57
2021/12/24 14:53:30;;;;;;;5.70;1.90;;;11.10;99.90;;;;;;5008242;28;20128;-56
2021/12/24 14:55:59;;;;;;;2.50;1.70;;;11.10;99.90;;;;;;5013722;28;20602;-57
2021/12/24 14:58:42;;;;;;;2.85;1.38;;;11.10;99.90;;;;;;5007846;28;20149;-56
2021/12/24 15:01:15;;;;;;;3.10;1.40;;;11.10;99.90;;;;;;5012044;28;20054;-56
2021/12/24 15:03:55;;;;;;;3.30;1.45;;;11.10;99.90;;;;;;5012000;28;20081;-57
2021/12/24 15:06:29;;;;;;;3.63;1.52;;;11.00;99.90;;;;;;5013853;28;20454;-57